sensor_id;sensor_type;location;lat;lon;timestamp;noise_LAeq;noise_LA_min;noise_LA_max;noise_LA01;noise_LA95
70454;Laerm;57915;47.174;14.680;2023-11-21T00:00:55;41.14;38.79;43.93;;
70454;Laerm;57915;47.174;14.680;2023-11-21T00:01:56;42.26;39.08;44.70;;
70454;Laerm;57915;47.174;14.680;2023-11-21T00:02:58;40.74;37.87;43.63;;
70454;Laerm;57915;47.174;14.680;2023-11-21T00:03:59;44.49;37.18;53.25;;
70454;Laerm;57915;47.174;14.680;2023-11-21T00:05:01;56.07;37.79;68.56;;
70454;Laerm;57915;47.174;14.680;2023-11-21T00:06:03;39.19;36.32;42.88;;
70454;Laerm;57915;47.174;14.680;2023-11-21T00:07:08;38.43;35.45;44.76;;
70454;Laerm;57915;47.174;14.680;2023-11-21T00:08:09;37.78;35.22;44.85;;
70454;Laerm;57915;47.174;14.680;2023-11-21T00:09:10;38.19;35.46;45.00;;
70454;Laerm;57915;47.174;14.680;2023-11-21T00:10:13;54.92;36.24;68.63;;
70454;Laerm;57915;47.174;14.680;2023-11-21T00:11:14;39.03;36.45;41.87;;
70454;Laerm;57915;47.174;14.680;2023-11-21T00:12:15;38.45;35.85;41.29;;
70454;Laerm;57915;47.174;14.680;2023-11-21T00:13:16;38.26;35.86;40.86;;
70454;Laerm;57915;47.174;14.680;2023-11-21T00:14:18;38.91;36.38;42.19;;
70454;Laerm;57915;47.174;14.680;2023-11-21T00:15:18;39.61;36.41;46.33;;
70454;Laerm;57915;47.174;14.680;2023-11-21T00:16:19;54.92;37.06;66.89;;
70454;Laerm;57915;47.174;14.680;2023-11-21T00:17:22;39.15;36.01;42.05;;
70454;Laerm;57915;47.174;14.680;2023-11-21T00:18:24;39.14;36.47;42.16;;
70454;Laerm;57915;47.174;14.680;2023-11-21T00:19:25;40.79;37.97;43.08;;
70454;Laerm;57915;47.174;14.680;2023-11-21T00:20:25;40.69;37.99;43.03;;
70454;Laerm;57915;47.174;14.680;2023-11-21T00:21:27;39.96;36.97;42.29;;
70454;Laerm;57915;47.174;14.680;2023-11-21T00:22:27;38.93;36.72;42.68;;
70454;Laerm;57915;47.174;14.680;2023-11-21T00:23:29;39.10;36.30;41.97;;
70454;Laerm;57915;47.174;14.680;2023-11-21T00:24:29;39.81;37.34;42.25;;
70454;Laerm;57915;47.174;14.680;2023-11-21T00:25:31;38.87;36.21;41.00;;
70454;Laerm;57915;47.174;14.680;2023-11-21T00:26:32;38.14;35.80;40.28;;
70454;Laerm;57915;47.174;14.680;2023-11-21T00:27:36;52.67;36.65;65.64;;
70454;Laerm;57915;47.174;14.680;2023-11-21T00:28:37;39.00;36.15;41.42;;
70454;Laerm;57915;47.174;14.680;2023-11-21T00:29:38;39.50;36.49;42.27;;
70454;Laerm;57915;47.174;14.680;2023-11-21T00:30:39;38.39;36.31;40.96;;
70454;Laerm;57915;47.174;14.680;2023-11-21T00:31:39;39.36;36.65;42.20;;
70454;Laerm;57915;47.174;14.680;2023-11-21T00:32:40;38.00;35.60;40.66;;
70454;Laerm;57915;47.174;14.680;2023-11-21T00:33:43;37.48;34.47;40.96;;
70454;Laerm;57915;47.174;14.680;2023-11-21T00:34:44;39.67;36.80;45.92;;
70454;Laerm;57915;47.174;14.680;2023-11-21T00:35:45;55.34;37.63;68.55;;
70454;Laerm;57915;47.174;14.680;2023-11-21T00:36:46;40.65;37.51;46.64;;
70454;Laerm;57915;47.174;14.680;2023-11-21T00:37:46;39.92;37.06;43.63;;
70454;Laerm;57915;47.174;14.680;2023-11-21T00:38:49;40.42;37.04;56.12;;
70454;Laerm;57915;47.174;14.680;2023-11-21T00:39:50;39.12;36.07;42.51;;
70454;Laerm;57915;47.174;14.680;2023-11-21T00:40:51;40.31;36.96;43.64;;
70454;Laerm;57915;47.174;14.680;2023-11-21T00:41:53;38.57;35.56;41.22;;
70454;Laerm;57915;47.174;14.680;2023-11-21T00:42:54;38.43;36.19;41.05;;
70454;Laerm;57915;47.174;14.680;2023-11-21T00:43:56;37.86;35.08;41.35;;
70454;Laerm;57915;47.174;14.680;2023-11-21T00:44:57;39.08;36.41;41.66;;
70454;Laerm;57915;47.174;14.680;2023-11-21T00:45:57;39.22;37.01;41.66;;
70454;Laerm;57915;47.174;14.680;2023-11-21T00:46:58;38.99;36.53;41.27;;
70454;Laerm;57915;47.174;14.680;2023-11-21T00:47:59;40.14;36.04;43.20;;
70454;Laerm;57915;47.174;14.680;2023-11-21T00:49:01;39.61;36.46;42.31;;
70454;Laerm;57915;47.174;14.680;2023-11-21T00:50:04;40.63;38.10;44.82;;
70454;Laerm;57915;47.174;14.680;2023-11-21T00:51:06;41.31;38.29;43.98;;
70454;Laerm;57915;47.174;14.680;2023-11-21T00:52:07;41.69;38.02;44.62;;
70454;Laerm;57915;47.174;14.680;2023-11-21T00:53:08;42.77;39.59;46.90;;
70454;Laerm;57915;47.174;14.680;2023-11-21T00:54:09;42.21;38.90;44.86;;
70454;Laerm;57915;47.174;14.680;2023-11-21T00:55:10;40.75;37.68;43.69;;
70454;Laerm;57915;47.174;14.680;2023-11-21T00:56:11;41.50;37.87;44.57;;
70454;Laerm;57915;47.174;14.680;2023-11-21T00:57:12;42.38;39.03;45.42;;
70454;Laerm;57915;47.174;14.680;2023-11-21T00:58:13;41.28;37.20;44.76;;
70454;Laerm;57915;47.174;14.680;2023-11-21T00:59:14;39.92;37.16;44.56;;
70454;Laerm;57915;47.174;14.680;2023-11-21T01:00:16;41.67;38.75;47.89;;
70454;Laerm;57915;47.174;14.680;2023-11-21T01:01:18;41.84;38.05;45.64;;
70454;Laerm;57915;47.174;14.680;2023-11-21T01:02:19;42.99;40.01;46.45;;
70454;Laerm;57915;47.174;14.680;2023-11-21T01:03:20;43.92;39.78;47.97;;
70454;Laerm;57915;47.174;14.680;2023-11-21T01:04:23;44.00;40.65;48.21;;
70454;Laerm;57915;47.174;14.680;2023-11-21T01:05:23;43.37;40.61;47.39;;
70454;Laerm;57915;47.174;14.680;2023-11-21T01:06:25;45.02;40.07;48.71;;
70454;Laerm;57915;47.174;14.680;2023-11-21T01:07:26;45.04;41.46;48.72;;
70454;Laerm;57915;47.174;14.680;2023-11-21T01:08:27;41.34;38.33;46.43;;
70454;Laerm;57915;47.174;14.680;2023-11-21T01:09:28;41.76;38.40;46.60;;
70454;Laerm;57915;47.174;14.680;2023-11-21T01:10:30;40.27;36.53;45.44;;
70454;Laerm;57915;47.174;14.680;2023-11-21T01:11:31;41.41;37.72;49.63;;
70454;Laerm;57915;47.174;14.680;2023-11-21T01:12:35;42.63;39.14;46.56;;
70454;Laerm;57915;47.174;14.680;2023-11-21T01:13:36;43.57;40.23;46.70;;
70454;Laerm;57915;47.174;14.680;2023-11-21T01:14:37;42.80;38.72;46.49;;
70454;Laerm;57915;47.174;14.680;2023-11-21T01:15:38;45.69;38.67;51.19;;
70454;Laerm;57915;47.174;14.680;2023-11-21T01:16:39;44.03;39.98;47.95;;
70454;Laerm;57915;47.174;14.680;2023-11-21T01:17:40;45.25;39.60;49.75;;
70454;Laerm;57915;47.174;14.680;2023-11-21T01:18:42;45.04;39.94;55.79;;
70454;Laerm;57915;47.174;14.680;2023-11-21T01:19:43;56.66;41.13;69.06;;
70454;Laerm;57915;47.174;14.680;2023-11-21T01:20:45;41.48;37.81;46.59;;
70454;Laerm;57915;47.174;14.680;2023-11-21T01:21:47;42.68;38.75;46.97;;
70454;Laerm;57915;47.174;14.680;2023-11-21T01:22:48;44.40;39.09;48.76;;
70454;Laerm;57915;47.174;14.680;2023-11-21T01:23:49;54.32;38.67;67.21;;
70454;Laerm;57915;47.174;14.680;2023-11-21T01:24:50;40.91;37.66;43.83;;
70454;Laerm;57915;47.174;14.680;2023-11-21T01:25:50;43.27;39.72;47.50;;
70454;Laerm;57915;47.174;14.680;2023-11-21T01:26:52;41.86;37.85;45.03;;
70454;Laerm;57915;47.174;14.680;2023-11-21T01:27:53;42.75;38.39;46.39;;
70454;Laerm;57915;47.174;14.680;2023-11-21T01:28:54;40.83;36.96;49.00;;
70454;Laerm;57915;47.174;14.680;2023-11-21T01:29:54;44.73;40.28;52.09;;
70454;Laerm;57915;47.174;14.680;2023-11-21T01:30:56;42.23;39.34;45.59;;
70454;Laerm;57915;47.174;14.680;2023-11-21T01:31:56;44.31;39.99;47.82;;
70454;Laerm;57915;47.174;14.680;2023-11-21T01:32:58;43.50;40.21;47.00;;
70454;Laerm;57915;47.174;14.680;2023-11-21T01:33:59;42.96;38.98;46.38;;
70454;Laerm;57915;47.174;14.680;2023-11-21T01:35:01;42.66;39.46;46.28;;
70454;Laerm;57915;47.174;14.680;2023-11-21T01:36:02;43.67;40.29;47.18;;
70454;Laerm;57915;47.174;14.680;2023-11-21T01:37:04;41.27;37.92;45.41;;
70454;Laerm;57915;47.174;14.680;2023-11-21T01:38:05;42.40;38.43;48.31;;
70454;Laerm;57915;47.174;14.680;2023-11-21T01:39:08;47.16;42.84;51.79;;
70454;Laerm;57915;47.174;14.680;2023-11-21T01:40:11;43.41;39.58;47.28;;
70454;Laerm;57915;47.174;14.680;2023-11-21T01:41:14;42.49;39.24;45.48;;
70454;Laerm;57915;47.174;14.680;2023-11-21T01:42:14;40.53;37.79;43.70;;
70454;Laerm;57915;47.174;14.680;2023-11-21T01:43:16;41.12;37.07;45.61;;
70454;Laerm;57915;47.174;14.680;2023-11-21T01:44:16;45.67;41.41;49.49;;
70454;Laerm;57915;47.174;14.680;2023-11-21T01:45:19;43.44;40.30;48.68;;
70454;Laerm;57915;47.174;14.680;2023-11-21T01:46:20;41.79;38.53;45.62;;
70454;Laerm;57915;47.174;14.680;2023-11-21T01:47:21;44.69;40.62;48.52;;
70454;Laerm;57915;47.174;14.680;2023-11-21T01:48:23;42.91;39.74;46.64;;
70454;Laerm;57915;47.174;14.680;2023-11-21T01:49:23;41.70;37.95;44.85;;
70454;Laerm;57915;47.174;14.680;2023-11-21T01:50:26;40.22;36.91;47.54;;
70454;Laerm;57915;47.174;14.680;2023-11-21T01:51:27;40.96;36.51;48.45;;
70454;Laerm;57915;47.174;14.680;2023-11-21T01:52:28;39.05;36.29;42.53;;
70454;Laerm;57915;47.174;14.680;2023-11-21T01:53:29;40.46;36.61;48.33;;
70454;Laerm;57915;47.174;14.680;2023-11-21T01:54:31;39.83;36.60;42.35;;
70454;Laerm;57915;47.174;14.680;2023-11-21T01:55:31;39.43;36.27;43.01;;
70454;Laerm;57915;47.174;14.680;2023-11-21T01:56:34;40.53;37.40;43.40;;
70454;Laerm;57915;47.174;14.680;2023-11-21T01:57:35;41.13;37.20;46.72;;
70454;Laerm;57915;47.174;14.680;2023-11-21T01:58:37;40.63;37.11;43.51;;
70454;Laerm;57915;47.174;14.680;2023-11-21T01:59:39;39.36;36.67;42.32;;
70454;Laerm;57915;47.174;14.680;2023-11-21T02:00:42;40.09;37.21;43.05;;
70454;Laerm;57915;47.174;14.680;2023-11-21T02:01:43;40.09;37.13;43.20;;
70454;Laerm;57915;47.174;14.680;2023-11-21T02:02:44;39.75;36.62;45.54;;
70454;Laerm;57915;47.174;14.680;2023-11-21T02:03:46;41.54;37.74;44.67;;
70454;Laerm;57915;47.174;14.680;2023-11-21T02:04:46;40.03;36.62;43.37;;
70454;Laerm;57915;47.174;14.680;2023-11-21T02:05:49;38.70;36.18;41.67;;
70454;Laerm;57915;47.174;14.680;2023-11-21T02:06:49;39.60;36.75;43.61;;
70454;Laerm;57915;47.174;14.680;2023-11-21T02:07:51;38.62;36.12;43.29;;
70454;Laerm;57915;47.174;14.680;2023-11-21T02:08:52;39.34;36.18;44.20;;
70454;Laerm;57915;47.174;14.680;2023-11-21T02:09:54;38.37;35.93;40.77;;
70454;Laerm;57915;47.174;14.680;2023-11-21T02:10:54;38.77;36.02;42.62;;
70454;Laerm;57915;47.174;14.680;2023-11-21T02:11:56;39.12;35.91;42.55;;
70454;Laerm;57915;47.174;14.680;2023-11-21T02:12:56;39.66;36.36;42.89;;
70454;Laerm;57915;47.174;14.680;2023-11-21T02:13:59;55.32;37.93;67.76;;
70454;Laerm;57915;47.174;14.680;2023-11-21T02:14:59;43.11;40.30;45.80;;
70454;Laerm;57915;47.174;14.680;2023-11-21T02:16:01;43.24;40.48;45.97;;
70454;Laerm;57915;47.174;14.680;2023-11-21T02:17:01;42.88;39.46;45.06;;
70454;Laerm;57915;47.174;14.680;2023-11-21T02:18:03;42.27;38.19;46.09;;
70454;Laerm;57915;47.174;14.680;2023-11-21T02:19:06;42.87;38.89;46.88;;
70454;Laerm;57915;47.174;14.680;2023-11-21T02:20:10;42.41;37.96;45.67;;
70454;Laerm;57915;47.174;14.680;2023-11-21T02:21:16;39.87;37.18;42.85;;
70454;Laerm;57915;47.174;14.680;2023-11-21T02:22:19;42.91;38.53;46.34;;
70454;Laerm;57915;47.174;14.680;2023-11-21T02:23:21;43.17;38.00;48.29;;
70454;Laerm;57915;47.174;14.680;2023-11-21T02:24:23;40.79;38.14;44.18;;
70454;Laerm;57915;47.174;14.680;2023-11-21T02:25:24;42.13;37.93;45.18;;
70454;Laerm;57915;47.174;14.680;2023-11-21T02:26:24;42.49;38.47;46.33;;
70454;Laerm;57915;47.174;14.680;2023-11-21T02:27:26;42.57;39.55;45.85;;
70454;Laerm;57915;47.174;14.680;2023-11-21T02:28:27;55.49;39.79;68.86;;
70454;Laerm;57915;47.174;14.680;2023-11-21T02:29:29;43.32;39.66;48.90;;
70454;Laerm;57915;47.174;14.680;2023-11-21T02:30:30;44.70;40.00;53.76;;
70454;Laerm;57915;47.174;14.680;2023-11-21T02:31:31;41.39;38.14;46.78;;
70454;Laerm;57915;47.174;14.680;2023-11-21T02:32:33;42.74;39.92;49.94;;
70454;Laerm;57915;47.174;14.680;2023-11-21T02:33:34;43.33;38.51;51.71;;
70454;Laerm;57915;47.174;14.680;2023-11-21T02:34:36;56.13;39.89;69.42;;
70454;Laerm;57915;47.174;14.680;2023-11-21T02:35:36;42.11;38.78;48.94;;
70454;Laerm;57915;47.174;14.680;2023-11-21T02:36:38;41.39;38.47;48.59;;
70454;Laerm;57915;47.174;14.680;2023-11-21T02:37:39;41.33;37.97;45.69;;
70454;Laerm;57915;47.174;14.680;2023-11-21T02:38:42;42.19;39.01;48.93;;
70454;Laerm;57915;47.174;14.680;2023-11-21T02:39:43;42.41;38.60;47.35;;
70454;Laerm;57915;47.174;14.680;2023-11-21T02:40:44;41.56;38.07;51.09;;
70454;Laerm;57915;47.174;14.680;2023-11-21T02:41:45;42.93;39.41;49.89;;
70454;Laerm;57915;47.174;14.680;2023-11-21T02:42:46;60.54;40.17;72.80;;
70454;Laerm;57915;47.174;14.680;2023-11-21T02:43:47;59.71;40.40;68.99;;
70454;Laerm;57915;47.174;14.680;2023-11-21T02:44:47;45.68;40.49;51.37;;
70454;Laerm;57915;47.174;14.680;2023-11-21T02:45:49;60.02;40.03;71.53;;
70454;Laerm;57915;47.174;14.680;2023-11-21T02:46:49;44.28;39.53;48.38;;
70454;Laerm;57915;47.174;14.680;2023-11-21T02:47:51;44.17;40.59;50.45;;
70454;Laerm;57915;47.174;14.680;2023-11-21T02:48:53;43.52;40.13;49.62;;
70454;Laerm;57915;47.174;14.680;2023-11-21T02:49:54;50.12;41.08;54.64;;
70454;Laerm;57915;47.174;14.680;2023-11-21T02:50:55;50.30;40.49;57.40;;
70454;Laerm;57915;47.174;14.680;2023-11-21T02:51:56;41.72;38.07;49.63;;
70454;Laerm;57915;47.174;14.680;2023-11-21T02:52:56;41.96;37.91;48.90;;
70454;Laerm;57915;47.174;14.680;2023-11-21T02:54:01;42.44;38.73;46.12;;
70454;Laerm;57915;47.174;14.680;2023-11-21T02:55:05;42.99;38.23;47.73;;
70454;Laerm;57915;47.174;14.680;2023-11-21T02:56:07;42.04;38.49;47.96;;
70454;Laerm;57915;47.174;14.680;2023-11-21T02:57:08;45.00;39.52;50.78;;
70454;Laerm;57915;47.174;14.680;2023-11-21T02:58:09;46.18;39.54;52.65;;
70454;Laerm;57915;47.174;14.680;2023-11-21T02:59:10;43.83;38.43;54.75;;
70454;Laerm;57915;47.174;14.680;2023-11-21T03:00:11;43.81;38.29;54.20;;
70454;Laerm;57915;47.174;14.680;2023-11-21T03:01:14;44.36;38.68;48.21;;
70454;Laerm;57915;47.174;14.680;2023-11-21T03:02:17;43.26;39.50;49.30;;
70454;Laerm;57915;47.174;14.680;2023-11-21T03:03:17;42.92;38.98;50.20;;
70454;Laerm;57915;47.174;14.680;2023-11-21T03:04:18;42.07;38.45;48.00;;
70454;Laerm;57915;47.174;14.680;2023-11-21T03:05:21;43.97;38.99;48.21;;
70454;Laerm;57915;47.174;14.680;2023-11-21T03:06:22;43.44;39.55;63.54;;
70454;Laerm;57915;47.174;14.680;2023-11-21T03:07:23;42.92;39.65;52.13;;
70454;Laerm;57915;47.174;14.680;2023-11-21T03:08:24;55.66;39.59;67.67;;
70454;Laerm;57915;47.174;14.680;2023-11-21T03:09:27;59.29;40.15;71.81;;
70454;Laerm;57915;47.174;14.680;2023-11-21T03:10:27;56.36;38.95;68.03;;
70454;Laerm;57915;47.174;14.680;2023-11-21T03:11:28;63.26;40.48;77.32;;
70454;Laerm;57915;47.174;14.680;2023-11-21T03:12:29;57.88;39.76;71.26;;
70454;Laerm;57915;47.174;14.680;2023-11-21T03:13:30;62.80;42.38;73.08;;
70454;Laerm;57915;47.174;14.680;2023-11-21T03:14:31;48.98;40.52;62.32;;
70454;Laerm;57915;47.174;14.680;2023-11-21T03:15:32;43.51;40.04;48.20;;
70454;Laerm;57915;47.174;14.680;2023-11-21T03:16:33;58.49;40.56;73.54;;
70454;Laerm;57915;47.174;14.680;2023-11-21T03:17:33;57.28;39.37;73.61;;
70454;Laerm;57915;47.174;14.680;2023-11-21T03:18:34;61.46;39.94;74.45;;
70454;Laerm;57915;47.174;14.680;2023-11-21T03:19:35;41.44;39.37;44.74;;
70454;Laerm;57915;47.174;14.680;2023-11-21T03:20:36;57.23;38.07;69.34;;
70454;Laerm;57915;47.174;14.680;2023-11-21T03:21:37;39.92;37.94;42.60;;
70454;Laerm;57915;47.174;14.680;2023-11-21T03:22:38;40.48;37.77;43.22;;
70454;Laerm;57915;47.174;14.680;2023-11-21T03:23:39;40.51;38.16;43.85;;
70454;Laerm;57915;47.174;14.680;2023-11-21T03:24:41;40.75;38.51;44.51;;
70454;Laerm;57915;47.174;14.680;2023-11-21T03:25:42;59.45;38.46;72.24;;
70454;Laerm;57915;47.174;14.680;2023-11-21T03:26:44;44.09;38.51;57.16;;
70454;Laerm;57915;47.174;14.680;2023-11-21T03:27:44;58.65;38.78;72.93;;
70454;Laerm;57915;47.174;14.680;2023-11-21T03:28:46;59.49;38.99;72.47;;
70454;Laerm;57915;47.174;14.680;2023-11-21T03:29:46;42.02;38.86;46.59;;
70454;Laerm;57915;47.174;14.680;2023-11-21T03:30:48;40.41;37.38;44.12;;
70454;Laerm;57915;47.174;14.680;2023-11-21T03:31:48;41.46;38.72;46.18;;
70454;Laerm;57915;47.174;14.680;2023-11-21T03:32:50;41.79;38.53;46.61;;
70454;Laerm;57915;47.174;14.680;2023-11-21T03:33:50;58.64;38.84;71.47;;
70454;Laerm;57915;47.174;14.680;2023-11-21T03:34:54;59.00;40.24;72.52;;
70454;Laerm;57915;47.174;14.680;2023-11-21T03:35:55;57.72;39.54;70.17;;
70454;Laerm;57915;47.174;14.680;2023-11-21T03:36:56;59.17;41.63;69.30;;
70454;Laerm;57915;47.174;14.680;2023-11-21T03:37:57;53.73;39.45;67.64;;
70454;Laerm;57915;47.174;14.680;2023-11-21T03:38:58;58.36;40.45;72.43;;
70454;Laerm;57915;47.174;14.680;2023-11-21T03:40:00;41.85;39.65;45.18;;
70454;Laerm;57915;47.174;14.680;2023-11-21T03:41:04;41.47;38.26;46.61;;
70454;Laerm;57915;47.174;14.680;2023-11-21T03:42:05;60.30;39.25;72.90;;
70454;Laerm;57915;47.174;14.680;2023-11-21T03:43:05;55.17;39.71;68.95;;
70454;Laerm;57915;47.174;14.680;2023-11-21T03:44:07;42.91;39.01;49.29;;
70454;Laerm;57915;47.174;14.680;2023-11-21T03:45:08;43.19;40.17;48.03;;
70454;Laerm;57915;47.174;14.680;2023-11-21T03:46:08;58.17;41.53;71.65;;
70454;Laerm;57915;47.174;14.680;2023-11-21T03:47:10;52.44;39.93;68.14;;
70454;Laerm;57915;47.174;14.680;2023-11-21T03:48:10;63.22;41.71;75.31;;
70454;Laerm;57915;47.174;14.680;2023-11-21T03:49:13;56.54;39.14;68.23;;
70454;Laerm;57915;47.174;14.680;2023-11-21T03:50:13;61.48;39.85;71.35;;
70454;Laerm;57915;47.174;14.680;2023-11-21T03:51:15;42.11;39.15;47.44;;
70454;Laerm;57915;47.174;14.680;2023-11-21T03:52:16;41.57;38.04;46.89;;
70454;Laerm;57915;47.174;14.680;2023-11-21T03:53:18;56.43;35.93;68.24;;
70454;Laerm;57915;47.174;14.680;2023-11-21T03:54:18;38.78;36.15;49.57;;
70454;Laerm;57915;47.174;14.680;2023-11-21T03:55:21;52.76;36.99;65.10;;
70454;Laerm;57915;47.174;14.680;2023-11-21T03:56:23;51.02;38.93;65.99;;
70454;Laerm;57915;47.174;14.680;2023-11-21T03:57:24;54.24;36.24;68.02;;
70454;Laerm;57915;47.174;14.680;2023-11-21T03:58:25;44.30;35.81;53.51;;
70454;Laerm;57915;47.174;14.680;2023-11-21T03:59:26;38.61;34.02;52.82;;
70454;Laerm;57915;47.174;14.680;2023-11-21T04:00:27;59.31;34.54;70.78;;
70454;Laerm;57915;47.174;14.680;2023-11-21T04:01:29;65.36;46.46;74.92;;
70454;Laerm;57915;47.174;14.680;2023-11-21T04:02:29;40.77;34.49;51.79;;
70454;Laerm;57915;47.174;14.680;2023-11-21T04:03:31;56.40;37.84;69.18;;
70454;Laerm;57915;47.174;14.680;2023-11-21T04:04:32;41.19;37.36;47.61;;
70454;Laerm;57915;47.174;14.680;2023-11-21T04:05:33;39.01;35.91;43.29;;
70454;Laerm;57915;47.174;14.680;2023-11-21T04:06:34;57.43;35.29;68.60;;
70454;Laerm;57915;47.174;14.680;2023-11-21T04:07:36;40.08;36.41;47.40;;
70454;Laerm;57915;47.174;14.680;2023-11-21T04:08:38;40.13;36.42;46.45;;
70454;Laerm;57915;47.174;14.680;2023-11-21T04:09:39;38.07;35.24;42.33;;
70454;Laerm;57915;47.174;14.680;2023-11-21T04:10:42;38.73;35.79;42.90;;
70454;Laerm;57915;47.174;14.680;2023-11-21T04:11:44;55.91;37.31;67.88;;
70454;Laerm;57915;47.174;14.680;2023-11-21T04:12:45;63.97;42.76;72.87;;
70454;Laerm;57915;47.174;14.680;2023-11-21T04:13:47;62.76;39.23;73.00;;
70454;Laerm;57915;47.174;14.680;2023-11-21T04:14:47;61.33;38.79;70.17;;
70454;Laerm;57915;47.174;14.680;2023-11-21T04:15:49;42.37;37.52;54.53;;
70454;Laerm;57915;47.174;14.680;2023-11-21T04:16:49;61.02;40.38;72.65;;
70454;Laerm;57915;47.174;14.680;2023-11-21T04:17:51;61.79;38.83;75.29;;
70454;Laerm;57915;47.174;14.680;2023-11-21T04:18:51;62.88;39.75;73.04;;
70454;Laerm;57915;47.174;14.680;2023-11-21T04:19:53;63.88;42.20;73.19;;
70454;Laerm;57915;47.174;14.680;2023-11-21T04:20:53;62.00;42.40;72.34;;
70454;Laerm;57915;47.174;14.680;2023-11-21T04:21:55;63.03;42.96;74.10;;
70454;Laerm;57915;47.174;14.680;2023-11-21T04:22:55;59.33;45.70;72.77;;
70454;Laerm;57915;47.174;14.680;2023-11-21T04:23:56;61.31;43.79;72.20;;
70454;Laerm;57915;47.174;14.680;2023-11-21T04:24:57;45.40;42.11;50.16;;
70454;Laerm;57915;47.174;14.680;2023-11-21T04:25:59;46.45;43.49;49.66;;
70454;Laerm;57915;47.174;14.680;2023-11-21T04:27:02;45.41;42.25;50.70;;
70454;Laerm;57915;47.174;14.680;2023-11-21T04:28:03;63.95;48.55;72.06;;
70454;Laerm;57915;47.174;14.680;2023-11-21T04:29:04;60.85;42.86;72.57;;
70454;Laerm;57915;47.174;14.680;2023-11-21T04:30:05;56.38;43.95;68.25;;
70454;Laerm;57915;47.174;14.680;2023-11-21T04:31:06;60.67;42.25;73.54;;
70454;Laerm;57915;47.174;14.680;2023-11-21T04:32:08;61.17;43.44;72.99;;
70454;Laerm;57915;47.174;14.680;2023-11-21T04:33:08;51.31;42.88;64.98;;
70454;Laerm;57915;47.174;14.680;2023-11-21T04:34:09;65.19;50.00;73.44;;
70454;Laerm;57915;47.174;14.680;2023-11-21T04:35:10;63.50;41.87;74.71;;
70454;Laerm;57915;47.174;14.680;2023-11-21T04:36:11;55.03;44.99;68.53;;
70454;Laerm;57915;47.174;14.680;2023-11-21T04:37:12;61.43;44.69;71.26;;
70454;Laerm;57915;47.174;14.680;2023-11-21T04:38:13;61.81;47.83;72.10;;
70454;Laerm;57915;47.174;14.680;2023-11-21T04:39:14;65.26;46.84;73.45;;
70454;Laerm;57915;47.174;14.680;2023-11-21T04:40:15;67.29;50.68;77.10;;
70454;Laerm;57915;47.174;14.680;2023-11-21T04:41:17;65.38;44.29;75.52;;
70454;Laerm;57915;47.174;14.680;2023-11-21T04:42:18;57.33;43.33;69.16;;
70454;Laerm;57915;47.174;14.680;2023-11-21T04:43:19;61.74;44.18;74.45;;
70454;Laerm;57915;47.174;14.680;2023-11-21T04:44:20;61.77;45.45;70.83;;
70454;Laerm;57915;47.174;14.680;2023-11-21T04:45:21;58.29;41.90;72.22;;
70454;Laerm;57915;47.174;14.680;2023-11-21T04:46:22;53.84;40.87;69.15;;
70454;Laerm;57915;47.174;14.680;2023-11-21T04:47:23;60.23;42.43;73.32;;
70454;Laerm;57915;47.174;14.680;2023-11-21T04:48:24;44.90;41.19;49.62;;
70454;Laerm;57915;47.174;14.680;2023-11-21T04:49:25;59.26;42.11;71.96;;
70454;Laerm;57915;47.174;14.680;2023-11-21T04:50:26;47.93;42.17;60.41;;
70454;Laerm;57915;47.174;14.680;2023-11-21T04:51:27;60.88;43.11;75.22;;
70454;Laerm;57915;47.174;14.680;2023-11-21T04:52:28;58.93;42.27;71.90;;
70454;Laerm;57915;47.174;14.680;2023-11-21T04:53:29;58.90;44.03;71.41;;
70454;Laerm;57915;47.174;14.680;2023-11-21T04:54:30;59.41;42.93;69.32;;
70454;Laerm;57915;47.174;14.680;2023-11-21T04:55:31;63.16;46.00;72.42;;
70454;Laerm;57915;47.174;14.680;2023-11-21T04:56:33;58.55;43.89;74.36;;
70454;Laerm;57915;47.174;14.680;2023-11-21T04:57:34;60.78;45.09;73.51;;
70454;Laerm;57915;47.174;14.680;2023-11-21T04:58:35;59.14;43.43;70.30;;
70454;Laerm;57915;47.174;14.680;2023-11-21T04:59:36;45.90;42.45;53.83;;
70454;Laerm;57915;47.174;14.680;2023-11-21T05:00:36;46.89;43.13;53.03;;
70454;Laerm;57915;47.174;14.680;2023-11-21T05:01:37;54.29;41.15;68.48;;
70454;Laerm;57915;47.174;14.680;2023-11-21T05:02:39;56.46;41.65;70.32;;
70454;Laerm;57915;47.174;14.680;2023-11-21T05:03:41;60.39;40.54;74.25;;
70454;Laerm;57915;47.174;14.680;2023-11-21T05:04:42;61.93;45.21;72.21;;
70454;Laerm;57915;47.174;14.680;2023-11-21T05:05:44;47.79;41.94;58.43;;
70454;Laerm;57915;47.174;14.680;2023-11-21T05:06:44;64.11;41.58;74.15;;
70454;Laerm;57915;47.174;14.680;2023-11-21T05:07:46;63.68;44.13;72.01;;
70454;Laerm;57915;47.174;14.680;2023-11-21T05:08:46;56.87;41.70;70.00;;
70454;Laerm;57915;47.174;14.680;2023-11-21T05:09:48;65.83;50.38;73.64;;
70454;Laerm;57915;47.174;14.680;2023-11-21T05:10:48;63.69;43.95;72.30;;
70454;Laerm;57915;47.174;14.680;2023-11-21T05:11:50;63.15;47.91;71.85;;
70454;Laerm;57915;47.174;14.680;2023-11-21T05:12:53;59.77;43.44;70.27;;
70454;Laerm;57915;47.174;14.680;2023-11-21T05:13:54;55.61;42.81;67.98;;
70454;Laerm;57915;47.174;14.680;2023-11-21T05:14:57;64.15;45.84;73.54;;
70454;Laerm;57915;47.174;14.680;2023-11-21T05:15:58;61.95;43.89;72.77;;
70454;Laerm;57915;47.174;14.680;2023-11-21T05:16:59;61.48;43.31;72.10;;
70454;Laerm;57915;47.174;14.680;2023-11-21T05:18:01;60.36;44.41;73.08;;
70454;Laerm;57915;47.174;14.680;2023-11-21T05:19:03;63.78;47.51;72.60;;
70454;Laerm;57915;47.174;14.680;2023-11-21T05:20:04;63.37;45.64;75.16;;
70454;Laerm;57915;47.174;14.680;2023-11-21T05:21:08;59.64;43.81;69.70;;
70454;Laerm;57915;47.174;14.680;2023-11-21T05:22:09;55.68;44.37;66.27;;
70454;Laerm;57915;47.174;14.680;2023-11-21T05:23:11;53.34;43.74;68.82;;
70454;Laerm;57915;47.174;14.680;2023-11-21T05:24:13;63.44;43.47;72.48;;
70454;Laerm;57915;47.174;14.680;2023-11-21T05:25:13;62.85;47.87;71.98;;
70454;Laerm;57915;47.174;14.680;2023-11-21T05:26:14;62.84;45.65;71.62;;
70454;Laerm;57915;47.174;14.680;2023-11-21T05:27:16;53.68;44.33;65.01;;
70454;Laerm;57915;47.174;14.680;2023-11-21T05:28:17;56.37;43.73;70.09;;
70454;Laerm;57915;47.174;14.680;2023-11-21T05:29:18;58.76;43.48;70.09;;
70454;Laerm;57915;47.174;14.680;2023-11-21T05:30:19;58.98;44.34;67.55;;
70454;Laerm;57915;47.174;14.680;2023-11-21T05:31:20;61.39;44.39;71.68;;
70454;Laerm;57915;47.174;14.680;2023-11-21T05:32:21;63.08;44.95;71.98;;
70454;Laerm;57915;47.174;14.680;2023-11-21T05:33:23;51.86;45.00;66.26;;
70454;Laerm;57915;47.174;14.680;2023-11-21T05:34:25;60.80;46.24;70.87;;
70454;Laerm;57915;47.174;14.680;2023-11-21T05:35:26;63.22;45.36;72.80;;
70454;Laerm;57915;47.174;14.680;2023-11-21T05:36:27;63.49;45.78;72.23;;
70454;Laerm;57915;47.174;14.680;2023-11-21T05:37:28;59.60;43.60;69.27;;
70454;Laerm;57915;47.174;14.680;2023-11-21T05:38:29;64.99;44.88;72.75;;